createdAt,value
2018-03-15T00:02:15.350Z,70.20
2018-03-15T00:04:41.308Z,70.80
2018-03-15T00:07:07.293Z,71.00
2018-03-15T00:09:33.244Z,71.60
2018-03-15T00:11:59.398Z,71.80
2018-03-15T00:14:25.340Z,71.90
2018-03-15T00:16:51.347Z,72.20
2018-03-15T00:19:17.284Z,72.50
2018-03-15T00:21:43.224Z,72.30
2018-03-15T00:24:09.311Z,72.30
2018-03-15T00:26:35.268Z,72.20
2018-03-15T00:29:01.406Z,72.30
2018-03-15T00:31:27.349Z,72.30
2018-03-15T00:33:53.362Z,72.40
2018-03-15T00:36:19.319Z,72.30
2018-03-15T00:38:46.017Z,72.60
2018-03-15T00:41:12.085Z,72.60
2018-03-15T00:43:38.780Z,73.10
2018-03-15T00:46:04.741Z,73.00
2018-03-15T00:48:31.423Z,73.20
2018-03-15T00:50:57.403Z,73.20
2018-03-15T00:53:24.075Z,73.80
2018-03-15T00:55:50.017Z,73.70
2018-03-15T00:58:16.123Z,73.50
2018-03-15T01:00:42.065Z,73.60
2018-03-15T01:03:08.036Z,73.60
2018-03-15T01:05:34.728Z,73.40
2018-03-15T01:08:00.704Z,73.40
2018-03-15T01:10:26.637Z,73.70
2018-03-15T01:12:52.709Z,73.70
2018-03-15T01:15:18.648Z,74.10
2018-03-15T01:17:44.626Z,74.30
2018-03-15T01:20:10.593Z,74.70
2018-03-15T01:22:36.577Z,74.60
2018-03-15T01:25:02.517Z,74.80
2018-03-15T01:27:28.477Z,74.90
2018-03-15T01:29:55.438Z,74.30
2018-03-15T01:32:21.403Z,74.30
2018-03-15T01:34:47.409Z,74.50
2018-03-15T01:37:13.366Z,75.20
2018-03-15T01:39:39.328Z,75.10
2018-03-15T01:42:05.265Z,75.20
2018-03-15T01:44:31.368Z,75.30
2018-03-15T01:46:57.319Z,74.90
2018-03-15T01:49:23.276Z,74.70
2018-03-15T01:51:49.256Z,74.60
2018-03-15T01:54:15.213Z,75.00
2018-03-15T01:56:41.202Z,74.80
2018-03-15T01:59:07.148Z,74.50
2018-03-15T02:01:33.105Z,74.10
2018-03-15T02:03:59.087Z,74.20
2018-03-15T02:06:25.029Z,74.20
2018-03-15T02:08:51.811Z,74.40
2018-03-15T02:11:17.809Z,74.40
2018-03-15T02:13:44.512Z,75.30
2018-03-15T02:16:10.501Z,75.30
2018-03-15T02:18:36.580Z,75.50
2018-03-15T02:21:02.537Z,75.80
2018-03-15T02:23:28.532Z,76.40
2018-03-15T02:25:54.475Z,76.90
2018-03-15T02:28:20.421Z,77.60
2018-03-15T02:30:46.528Z,77.90
2018-03-15T02:33:12.506Z,78.90
2018-03-15T02:35:38.491Z,78.80
2018-03-15T02:38:04.422Z,78.90
2018-03-15T02:40:30.529Z,79.40
2018-03-15T02:42:56.488Z,80.40
2018-03-15T02:45:22.447Z,81.30
2018-03-15T02:47:49.177Z,81.90
2018-03-15T02:50:15.874Z,82.10
2018-03-15T02:52:41.838Z,82.00
2018-03-15T02:55:08.580Z,82.30
2018-03-15T02:57:35.276Z,81.60
2018-03-15T03:00:01.381Z,81.60
2018-03-15T03:02:27.331Z,80.90
2018-03-15T03:04:53.336Z,81.10
2018-03-15T03:07:19.281Z,81.70
2018-03-15T03:09:45.254Z,82.00
2018-03-15T03:12:11.187Z,82.00
2018-03-15T03:14:37.341Z,80.80
2018-03-15T03:17:03.275Z,79.90
2018-03-15T03:19:29.252Z,79.20
2018-03-15T03:21:55.223Z,78.70
2018-03-15T03:24:21.189Z,78.10
2018-03-15T03:26:47.165Z,77.70
2018-03-15T03:29:13.272Z,77.60
2018-03-15T03:31:39.370Z,77.70
2018-03-15T03:34:05.316Z,78.20
2018-03-15T03:36:31.315Z,78.10
2018-03-15T03:38:57.269Z,78.80
2018-03-15T03:41:23.216Z,79.10
2018-03-15T03:43:49.187Z,79.40
2018-03-15T03:46:15.152Z,79.90
2018-03-15T03:48:41.252Z,80.80
2018-03-15T03:51:07.197Z,82.70
2018-03-15T03:53:33.187Z,83.10
2018-03-15T03:55:59.111Z,83.80
2018-03-15T03:58:25.049Z,83.90
2018-03-15T04:00:51.128Z,84.50
2018-03-15T04:03:17.090Z,84.50
2018-03-15T04:05:43.163Z,84.40
2018-03-15T04:08:09.864Z,84.70
2018-03-15T04:10:35.839Z,84.70
2018-03-15T04:13:01.784Z,84.60
2018-03-15T04:15:27.725Z,84.70
2018-03-15T04:17:53.696Z,84.20
2018-03-15T04:20:20.385Z,84.40
2018-03-15T04:22:46.706Z,84.40
2018-03-15T04:25:12.742Z,83.70
2018-03-15T04:27:38.700Z,83.40
2018-03-15T04:30:05.516Z,84.10
2018-03-15T04:32:31.495Z,84.10
2018-03-15T04:34:57.431Z,83.60
2018-03-15T04:37:23.396Z,83.40
2018-03-15T04:39:49.472Z,83.10
2018-03-15T04:42:15.414Z,83.10
2018-03-15T04:44:41.385Z,82.70
2018-03-15T04:47:08.068Z,82.70
2018-03-15T04:49:34.015Z,82.70
2018-03-15T04:51:59.992Z,82.60
2018-03-15T04:54:25.941Z,82.20
2018-03-15T04:56:52.029Z,81.60
2018-03-15T04:59:17.973Z,80.60
2018-03-15T05:01:43.961Z,80.70
2018-03-15T05:04:10.647Z,80.80
2018-03-15T05:06:36.595Z,80.80
2018-03-15T05:09:02.572Z,81.10
2018-03-15T05:11:28.516Z,80.90
2018-03-15T05:13:54.615Z,81.50
2018-03-15T05:16:20.564Z,82.40
2018-03-15T05:18:46.524Z,82.30
2018-03-15T05:21:13.217Z,82.50
2018-03-15T05:23:39.190Z,82.50
2018-03-15T05:26:05.881Z,82.10
2018-03-15T05:28:31.836Z,82.10
2018-03-15T05:30:57.927Z,82.40
2018-03-15T05:33:23.888Z,82.70
2018-03-15T05:35:49.888Z,82.20
2018-03-15T05:38:15.836Z,83.00
2018-03-15T05:40:42.548Z,82.50
2018-03-15T05:43:08.519Z,82.40
2018-03-15T05:45:34.473Z,82.60
2018-03-15T05:48:00.573Z,82.70
2018-03-15T05:50:26.519Z,83.30
2018-03-15T05:52:52.512Z,83.90
2018-03-15T05:55:18.459Z,84.40
2018-03-15T05:57:44.455Z,84.40
2018-03-15T06:00:10.409Z,84.90
2018-03-15T06:02:36.361Z,85.60
2018-03-15T06:05:02.488Z,85.50
2018-03-15T06:07:28.438Z,85.50
2018-03-15T06:09:54.417Z,84.90
2018-03-15T06:12:20.365Z,85.10
2018-03-15T06:14:47.117Z,84.80
2018-03-15T06:17:13.797Z,85.30
2018-03-15T06:19:39.726Z,85.30
2018-03-15T06:22:05.847Z,85.90
2018-03-15T06:24:31.811Z,86.10
2018-03-15T06:26:58.525Z,87.00
2018-03-15T06:29:24.624Z,86.30
2018-03-15T06:31:50.589Z,86.20
2018-03-15T06:34:16.556Z,86.10
2018-03-15T06:36:42.673Z,86.50
2018-03-15T06:39:08.623Z,86.70
2018-03-15T06:41:34.574Z,86.40
2018-03-15T06:44:00.569Z,86.50
2018-03-15T06:46:26.519Z,86.60
2018-03-15T06:48:52.532Z,86.10
2018-03-15T06:51:18.468Z,85.40
2018-03-15T06:53:44.559Z,86.10
2018-03-15T06:56:10.508Z,85.10
2018-03-15T06:58:36.469Z,84.70
2018-03-15T07:01:02.447Z,84.30
2018-03-15T07:03:28.398Z,83.80
2018-03-15T07:05:54.377Z,83.40
2018-03-15T07:08:20.329Z,83.40
2018-03-15T07:10:47.138Z,83.60
2018-03-15T07:13:13.115Z,83.40
2018-03-15T07:15:39.162Z,83.00
2018-03-15T07:18:05.155Z,83.10
2018-03-15T07:20:31.142Z,83.10
2018-03-15T07:22:57.112Z,82.40
2018-03-15T07:25:23.077Z,82.50
2018-03-15T07:27:49.112Z,82.50
2018-03-15T07:30:15.202Z,82.10
2018-03-15T07:32:41.154Z,81.70
2018-03-15T07:35:07.124Z,82.20
2018-03-15T07:37:33.070Z,81.90
2018-03-15T07:39:59.056Z,81.60
2018-03-15T07:42:25.835Z,81.10
2018-03-15T07:44:52.000Z,81.10
2018-03-15T07:47:17.908Z,80.50
2018-03-15T07:49:43.924Z,80.80
2018-03-15T07:52:09.856Z,80.80
2018-03-15T07:54:35.811Z,80.80
2018-03-15T07:57:01.787Z,80.80
2018-03-15T07:59:27.758Z,81.30
2018-03-15T08:01:53.717Z,80.70
2018-03-15T08:04:19.855Z,80.70
2018-03-15T08:06:45.836Z,80.80
2018-03-15T08:09:11.840Z,80.70
2018-03-15T08:11:38.545Z,80.70
2018-03-15T08:14:04.548Z,80.70
2018-03-15T08:16:30.527Z,81.00
2018-03-15T08:18:57.343Z,80.10
2018-03-15T08:21:23.323Z,80.10
2018-03-15T08:23:49.340Z,80.30
2018-03-15T08:26:15.308Z,79.60
2018-03-15T08:28:41.416Z,79.20
2018-03-15T08:31:07.409Z,79.40
2018-03-15T08:33:33.365Z,79.20
2018-03-15T08:35:59.468Z,78.70
2018-03-15T08:38:25.420Z,78.70
2018-03-15T08:40:51.364Z,78.10
2018-03-15T08:43:17.358Z,77.60
2018-03-15T08:45:43.324Z,77.40
2018-03-15T08:48:10.051Z,77.60
2018-03-15T08:50:36.010Z,77.60
2018-03-15T08:53:02.120Z,76.70
2018-03-15T08:55:28.096Z,76.20
2018-03-15T08:57:54.085Z,75.40
2018-03-15T09:00:20.056Z,74.80
2018-03-15T09:02:46.031Z,74.50
2018-03-15T09:05:11.992Z,75.00
2018-03-15T09:07:37.985Z,74.20
2018-03-15T09:10:03.960Z,73.40
2018-03-15T09:12:30.704Z,73.90
2018-03-15T09:14:56.697Z,73.90
2018-03-15T09:17:22.685Z,73.60
2018-03-15T09:19:48.675Z,73.60
2018-03-15T09:22:15.368Z,71.20
2018-03-15T09:24:41.449Z,71.20
2018-03-15T09:27:07.396Z,70.70
2018-03-15T09:29:33.637Z,70.70
2018-03-15T09:31:59.600Z,69.40
2018-03-15T09:34:25.639Z,67.60
2018-03-15T09:36:51.601Z,67.70
2018-03-15T09:39:17.625Z,66.30
2018-03-15T09:41:43.589Z,64.30
2018-03-15T09:44:10.320Z,64.10
2018-03-15T09:46:37.185Z,64.00
2018-03-15T09:49:03.151Z,63.90
2018-03-15T09:51:29.156Z,63.70
2018-03-15T09:53:55.121Z,64.60
2018-03-15T09:56:21.104Z,64.80
2018-03-15T09:58:47.072Z,65.40
2018-03-15T10:01:13.945Z,63.20
2018-03-15T10:03:39.900Z,63.20
2018-03-15T10:06:05.857Z,64.50
2018-03-15T10:08:32.608Z,63.00
2018-03-15T10:10:58.581Z,63.00
2018-03-15T10:13:24.685Z,61.80
2018-03-15T10:15:50.647Z,62.40
2018-03-15T10:18:16.688Z,63.20
2018-03-15T10:20:42.668Z,62.00
2018-03-15T10:23:08.660Z,60.90
2018-03-15T10:25:34.689Z,61.20
2018-03-15T10:28:00.613Z,61.70
2018-03-15T10:30:26.753Z,61.80
2018-03-15T10:32:52.725Z,62.50
2018-03-15T10:35:18.839Z,61.10
2018-03-15T10:37:44.796Z,59.70
2018-03-15T10:40:10.809Z,59.70
2018-03-15T10:42:37.544Z,58.30
2018-03-15T10:45:04.246Z,59.20
2018-03-15T10:47:30.260Z,59.20
2018-03-15T10:49:56.237Z,58.80
2018-03-15T10:52:23.092Z,58.20
2018-03-15T10:54:49.059Z,58.20
2018-03-15T10:57:15.064Z,58.50
2018-03-15T10:59:41.073Z,58.70
2018-03-15T11:02:07.052Z,57.70
2018-03-15T11:04:33.061Z,57.70
2018-03-15T11:06:59.024Z,58.00
2018-03-15T11:09:25.141Z,58.30
2018-03-15T11:11:51.120Z,57.40
2018-03-15T11:14:17.113Z,56.10
2018-03-15T11:16:43.085Z,55.30
2018-03-15T11:19:09.217Z,56.30
2018-03-15T11:21:35.184Z,55.30
2018-03-15T11:24:02.103Z,54.60
2018-03-15T11:26:28.041Z,55.30
2018-03-15T11:28:54.203Z,54.80
2018-03-15T11:31:20.225Z,54.60
2018-03-15T11:33:46.224Z,54.50
2018-03-15T11:36:12.337Z,54.90
2018-03-15T11:38:38.310Z,54.30
2018-03-15T11:41:04.284Z,54.30
2018-03-15T11:43:30.292Z,54.30
2018-03-15T11:45:56.282Z,54.00
2018-03-15T11:48:22.289Z,53.70
2018-03-15T11:50:48.272Z,53.80
2018-03-15T11:53:14.394Z,53.80
2018-03-15T11:55:40.372Z,53.10
2018-03-15T11:58:06.361Z,52.10
2018-03-15T12:00:32.494Z,50.60
2018-03-15T12:02:58.489Z,49.00
2018-03-15T12:05:24.505Z,50.60
2018-03-15T12:07:50.492Z,50.50
2018-03-15T12:10:16.472Z,50.40
2018-03-15T12:12:42.500Z,50.20
2018-03-15T12:15:08.523Z,50.10
2018-03-15T12:17:35.320Z,49.40
2018-03-15T12:20:01.283Z,50.20
2018-03-15T12:22:27.284Z,49.90
2018-03-15T12:24:53.990Z,50.10
2018-03-15T12:27:20.110Z,50.00
2018-03-15T12:29:46.218Z,48.80
2018-03-15T12:32:12.183Z,47.80
2018-03-15T12:34:38.284Z,49.80
2018-03-15T12:37:04.244Z,50.60
2018-03-15T12:39:31.033Z,49.20
2018-03-15T12:41:57.015Z,49.10
2018-03-15T12:44:23.149Z,49.30
2018-03-15T12:46:49.120Z,49.50
2018-03-15T12:49:15.094Z,50.30
2018-03-15T12:51:41.105Z,49.60
2018-03-15T12:54:07.849Z,48.50
2018-03-15T12:56:33.841Z,48.50
2018-03-15T12:59:00.621Z,48.00
2018-03-15T13:01:26.770Z,48.10
2018-03-15T13:03:52.768Z,47.90
2018-03-15T13:06:18.817Z,47.80
2018-03-15T13:08:44.776Z,48.30
2018-03-15T13:11:10.744Z,48.70
2018-03-15T13:13:36.744Z,48.50
2018-03-15T13:16:02.747Z,48.10
2018-03-15T13:18:28.868Z,48.80
2018-03-15T13:20:54.883Z,49.70
2018-03-15T13:23:20.864Z,49.60
2018-03-15T13:25:46.820Z,50.70
2018-03-15T13:28:13.005Z,50.30
2018-03-15T13:30:39.083Z,50.80
2018-03-15T13:33:05.038Z,50.40
2018-03-15T13:35:31.803Z,49.10
2018-03-15T13:37:57.779Z,49.10
2018-03-15T13:40:23.744Z,49.20
2018-03-15T13:42:49.692Z,48.70
2018-03-15T13:45:15.812Z,48.90
2018-03-15T13:47:41.797Z,50.20
2018-03-15T13:50:08.555Z,49.80
2018-03-15T13:52:34.540Z,49.80
2018-03-15T13:55:00.565Z,50.00
2018-03-15T13:57:26.569Z,50.40
2018-03-15T13:59:52.585Z,50.60
2018-03-15T14:02:18.523Z,50.20
2018-03-15T14:04:44.524Z,50.40
2018-03-15T14:07:10.656Z,50.20
2018-03-15T14:09:36.697Z,49.90
2018-03-15T14:12:02.668Z,50.00
2018-03-15T14:14:28.815Z,50.50
2018-03-15T14:16:54.780Z,50.70
2018-03-15T14:19:20.766Z,50.50
2018-03-15T14:21:46.957Z,50.80
2018-03-15T14:24:12.923Z,51.10
2018-03-15T14:26:38.908Z,51.20
2018-03-15T14:29:04.912Z,51.70
2018-03-15T14:31:31.671Z,52.50
2018-03-15T14:33:57.670Z,52.50
2018-03-15T14:36:23.625Z,52.70
2018-03-15T14:38:49.744Z,52.60
2018-03-15T14:41:16.447Z,53.20
2018-03-15T14:43:43.181Z,53.60
2018-03-15T14:46:09.177Z,53.60
2018-03-15T14:48:35.149Z,53.60
2018-03-15T14:51:01.165Z,54.20
2018-03-15T14:53:27.126Z,54.50
2018-03-15T14:55:53.225Z,54.90
2018-03-15T14:58:19.197Z,55.00
2018-03-15T15:00:45.214Z,55.60
2018-03-15T15:03:11.177Z,55.50
2018-03-15T15:05:37.882Z,56.00
2018-03-15T15:08:03.861Z,56.00
2018-03-15T15:10:29.826Z,56.60
2018-03-15T15:12:56.079Z,56.50
2018-03-15T15:15:22.078Z,56.50
2018-03-15T15:17:48.079Z,57.00
2018-03-15T15:20:14.082Z,56.80
2018-03-15T15:22:40.051Z,56.70
2018-03-15T15:25:06.060Z,57.00
2018-03-15T15:27:32.205Z,57.20
2018-03-15T15:29:58.194Z,57.30
2018-03-15T15:32:24.176Z,57.50
2018-03-15T15:34:50.879Z,57.30
2018-03-15T15:37:16.912Z,57.30
2018-03-15T15:39:42.868Z,58.10
2018-03-15T15:42:08.913Z,58.30
2018-03-15T15:44:34.963Z,58.30
2018-03-15T15:47:00.934Z,58.30
2018-03-15T15:49:26.896Z,58.70
2018-03-15T15:51:52.881Z,58.80
2018-03-15T15:54:18.847Z,58.90
2018-03-15T15:56:45.021Z,58.90
2018-03-15T15:59:11.784Z,59.30
2018-03-15T16:01:37.776Z,59.20
2018-03-15T16:04:04.550Z,59.50
2018-03-15T16:06:30.528Z,59.30
2018-03-15T16:08:56.530Z,59.60
2018-03-15T16:11:22.518Z,61.20
2018-03-15T16:13:49.732Z,62.30
2018-03-15T16:16:16.458Z,64.90
2018-03-15T16:18:43.613Z,64.90
2018-03-15T16:21:09.642Z,65.00
2018-03-15T16:23:36.394Z,65.60
2018-03-15T16:26:03.205Z,65.50
2018-03-15T16:28:29.224Z,65.50
2018-03-15T16:30:55.394Z,66.10
2018-03-15T16:33:22.813Z,66.30
2018-03-15T16:35:48.915Z,66.20
2018-03-15T16:38:14.897Z,66.00
2018-03-15T16:40:40.868Z,66.50
2018-03-15T16:43:06.954Z,65.90
2018-03-15T16:45:32.877Z,66.40
2018-03-15T16:47:59.268Z,67.10
2018-03-15T16:50:26.008Z,66.10
2018-03-15T16:52:52.016Z,66.10
2018-03-15T16:55:23.742Z,66.10
2018-03-15T16:57:49.892Z,66.00
2018-03-15T17:00:15.918Z,65.20
2018-03-15T17:02:42.290Z,65.20
2018-03-15T17:05:09.402Z,65.00
2018-03-15T17:07:36.863Z,64.50
2018-03-15T17:10:03.261Z,64.50
2018-03-15T17:12:29.857Z,64.10
2018-03-15T17:14:56.650Z,64.00
2018-03-15T17:17:22.612Z,64.00
2018-03-15T17:19:49.076Z,63.20
2018-03-15T17:22:15.041Z,63.10
2018-03-15T17:24:41.026Z,63.40
2018-03-15T17:27:07.052Z,62.50
2018-03-15T17:29:33.027Z,62.30
2018-03-15T17:31:59.024Z,62.60
2018-03-15T17:34:24.998Z,62.40
2018-03-15T17:36:51.744Z,61.70
2018-03-15T17:39:17.721Z,61.70
2018-03-15T17:41:43.837Z,60.90
2018-03-15T17:44:09.800Z,61.20
2018-03-15T17:46:35.936Z,61.30
2018-03-15T17:49:02.672Z,62.20
2018-03-15T17:51:29.405Z,61.60
2018-03-15T17:53:55.423Z,61.50
2018-03-15T17:56:21.398Z,62.30
2018-03-15T17:58:47.880Z,61.80
2018-03-15T18:01:14.596Z,61.80
2018-03-15T18:03:40.620Z,61.70
2018-03-15T18:06:08.062Z,61.60
2018-03-15T18:08:35.571Z,61.60
2018-03-15T18:11:02.601Z,61.90
2018-03-15T18:13:30.114Z,61.90
2018-03-15T18:15:57.976Z,61.50
2018-03-15T18:18:25.665Z,61.80
2018-03-15T18:20:52.674Z,62.00
2018-03-15T18:23:20.007Z,61.70
2018-03-15T18:25:47.333Z,61.90
2018-03-15T18:28:16.096Z,61.80
2018-03-15T18:30:45.896Z,61.80
2018-03-15T18:33:13.976Z,62.30
2018-03-15T18:35:41.517Z,61.90
2018-03-15T18:38:07.965Z,61.00
2018-03-15T18:40:34.454Z,61.00
2018-03-15T18:43:01.320Z,61.00
2018-03-15T18:45:27.488Z,61.00
2018-03-15T18:47:53.528Z,60.90
2018-03-15T18:50:19.505Z,60.70
2018-03-15T18:52:46.165Z,60.50
2018-03-15T18:55:12.161Z,60.40
2018-03-15T18:57:38.293Z,60.40
2018-03-15T19:00:04.347Z,60.10
2018-03-15T19:02:30.373Z,60.10
2018-03-15T19:04:56.356Z,59.90
2018-03-15T19:07:22.373Z,59.80
2018-03-15T19:09:48.340Z,59.70
2018-03-15T19:12:14.623Z,59.60
2018-03-15T19:14:41.107Z,59.70
2018-03-15T19:17:09.865Z,60.00
2018-03-15T19:19:37.152Z,60.00
2018-03-15T19:22:04.809Z,60.10
2018-03-15T19:24:32.178Z,60.40
2018-03-15T19:26:59.110Z,60.00
2018-03-15T19:29:27.658Z,60.40
2018-03-15T19:31:54.070Z,60.30
2018-03-15T19:34:21.680Z,61.10
2018-03-15T19:36:48.671Z,61.10
2018-03-15T19:39:15.750Z,61.30
2018-03-15T19:41:42.524Z,61.60
2018-03-15T19:44:08.588Z,61.70
2018-03-15T19:46:35.339Z,61.90
2018-03-15T19:49:01.382Z,61.90
2018-03-15T19:51:27.407Z,62.40
2018-03-15T19:53:53.874Z,62.50
2018-03-15T19:56:19.857Z,62.90
2018-03-15T19:58:46.328Z,62.90
2018-03-15T20:01:12.765Z,63.00
2018-03-15T20:03:38.908Z,63.10
2018-03-15T20:06:05.637Z,63.40
2018-03-15T20:08:31.640Z,63.40
2018-03-15T20:10:57.661Z,63.40
2018-03-15T20:13:23.655Z,63.80
2018-03-15T20:15:49.866Z,63.90
2018-03-15T20:18:15.916Z,64.40
2018-03-15T20:20:42.806Z,65.50
2018-03-15T20:23:08.789Z,66.20
2018-03-15T20:25:34.814Z,66.20
2018-03-15T20:28:00.793Z,67.50
2018-03-15T20:30:27.537Z,68.00
2018-03-15T20:32:53.567Z,67.90
2018-03-15T20:35:19.715Z,69.10
2018-03-15T20:37:46.399Z,68.70
2018-03-15T20:40:13.136Z,68.90
2018-03-15T20:42:39.817Z,68.90
2018-03-15T20:45:05.798Z,69.20
2018-03-15T20:47:31.820Z,69.50
2018-03-15T20:49:57.797Z,70.40
2018-03-15T20:52:23.818Z,70.50
2018-03-15T20:54:49.840Z,70.60
2018-03-15T20:57:15.868Z,70.80
2018-03-15T20:59:41.839Z,71.20
2018-03-15T21:02:07.814Z,71.60
2018-03-15T21:04:33.853Z,72.40
2018-03-15T21:07:00.071Z,71.70
2018-03-15T21:09:26.526Z,72.20
2018-03-15T21:11:52.554Z,72.10
2018-03-15T21:14:18.650Z,72.10
2018-03-15T21:16:44.616Z,72.00
2018-03-15T21:19:10.698Z,72.30
2018-03-15T21:21:36.704Z,72.60
2018-03-15T21:24:02.714Z,72.60
2018-03-15T21:26:28.880Z,72.30
2018-03-15T21:28:54.880Z,72.60
2018-03-15T21:31:20.877Z,72.60
2018-03-15T21:33:47.629Z,72.10
2018-03-15T21:36:14.459Z,71.60
2018-03-15T21:38:40.415Z,71.50
2018-03-15T21:41:06.397Z,71.40
2018-03-15T21:43:32.529Z,71.50
2018-03-15T21:45:58.585Z,71.40
2018-03-15T21:48:24.601Z,71.10
2018-03-15T21:50:50.604Z,70.60
2018-03-15T21:53:16.665Z,70.50
2018-03-15T21:55:42.644Z,70.70
2018-03-15T21:58:09.557Z,70.80
2018-03-15T22:00:35.578Z,70.80
2018-03-15T22:03:01.566Z,70.50
2018-03-15T22:05:27.566Z,70.40
2018-03-15T22:07:54.268Z,69.10
2018-03-15T22:10:20.260Z,69.10
2018-03-15T22:12:46.427Z,69.40
2018-03-15T22:15:12.593Z,69.70
2018-03-15T22:17:38.574Z,71.30
2018-03-15T22:20:04.592Z,71.80
2018-03-15T22:22:30.559Z,72.30
2018-03-15T22:24:56.573Z,72.30
2018-03-15T22:27:22.609Z,72.50
2018-03-15T22:29:48.711Z,72.50
2018-03-15T22:32:15.448Z,71.60
2018-03-15T22:34:42.204Z,71.50
2018-03-15T22:37:08.916Z,71.50
2018-03-15T22:39:34.918Z,71.50
2018-03-15T22:42:00.954Z,71.40
2018-03-15T22:44:26.958Z,70.10
2018-03-15T22:46:53.086Z,70.90
2018-03-15T22:49:19.292Z,70.00
2018-03-15T22:51:45.331Z,70.10
2018-03-15T22:54:11.296Z,70.00
2018-03-15T22:56:37.288Z,70.10
2018-03-15T22:59:03.319Z,70.10
2018-03-15T23:01:29.939Z,69.90
2018-03-15T23:03:55.938Z,69.90
2018-03-15T23:06:21.940Z,69.60
2018-03-15T23:08:48.685Z,69.40
2018-03-15T23:11:15.412Z,69.00
2018-03-15T23:13:41.913Z,69.10
2018-03-15T23:16:08.059Z,68.90
2018-03-15T23:18:34.196Z,69.00
2018-03-15T23:21:00.968Z,69.20
2018-03-15T23:23:26.993Z,69.10
2018-03-15T23:25:53.015Z,69.20
2018-03-15T23:28:19.032Z,69.20
2018-03-15T23:30:45.073Z,68.90
2018-03-15T23:33:11.067Z,68.80
2018-03-15T23:35:37.219Z,68.70
2018-03-15T23:38:03.213Z,68.50
2018-03-15T23:40:29.242Z,68.50
2018-03-15T23:42:55.460Z,68.30
2018-03-15T23:45:22.785Z,68.70
2018-03-15T23:47:49.037Z,68.70
2018-03-15T23:50:15.944Z,69.10
2018-03-15T23:52:41.944Z,69.10
2018-03-15T23:55:08.068Z,69.40
2018-03-15T23:57:34.034Z,69.60
